Time;durP1;ratioP1;P1;durP2;ratioP2;P2;SDS_P1;SDS_P2;PMS_P1;PMS_P2;Temp;Humidity;BMP_temperature;BMP_pressure;BME280_temperature;BME280_humidity;BME280_pressure;Samples;Min_cycle;Max_cycle;Signal;HPM_P1;HPM_P2
2022/12/12 00:06:49;;;;;;;4.68;1.52;;;;;;;22.25;36.71;101769.09;20839563;28;20076;-67
2022/12/12 00:16:53;;;;;;;4.20;1.27;;;;;;;22.27;37.07;101775.25;20845512;28;21064;-67
2022/12/12 00:26:54;;;;;;;3.88;1.02;;;;;;;22.26;36.84;101776.34;20848811;28;20057;-65
2022/12/12 00:36:56;;;;;;;2.25;1.17;;;;;;;22.26;36.72;101775.50;20834158;28;20107;-66
2022/12/12 00:46:57;;;;;;;6.95;1.63;;;;;;;22.22;36.27;101783.59;20833702;28;20050;-65
2022/12/12 00:56:58;;;;;;;4.50;1.20;;;;;;;22.15;36.40;101768.19;20875994;28;20408;-65
2022/12/12 01:07:00;;;;;;;3.53;1.33;;;;;;;22.20;36.47;101771.84;20803084;28;20481;-63
2022/12/12 01:17:01;;;;;;;7.05;1.20;;;;;;;22.15;36.40;101757.88;20831554;28;20045;-60
2022/12/12 01:27:03;;;;;;;5.95;1.67;;;;;;;22.19;36.49;101749.81;20833146;28;20049;-62
2022/12/12 01:37:04;;;;;;;11.18;2.15;;;;;;;22.18;36.71;101757.34;20827885;28;20053;-63
2022/12/12 01:47:05;;;;;;;4.35;1.88;;;;;;;22.11;36.40;101742.75;20829160;28;20049;-63
2022/12/12 01:57:11;;;;;;;6.13;2.50;;;;;;;22.14;36.71;101752.59;20826773;28;20119;-63
2022/12/12 02:07:12;;;;;;;6.10;3.08;;;;;;;22.11;36.55;101756.69;20807322;28;20038;-63
2022/12/12 02:17:28;;;;;;;6.05;2.83;;;;;;;22.10;36.69;101749.47;20830532;28;20492;-63
2022/12/12 02:27:47;;;;;;;4.70;2.42;;;;;;;21.97;36.41;101733.22;20826378;28;20041;-62
2022/12/12 02:38:25;;;;;;;8.13;2.70;;;;;;;21.99;36.45;101744.91;20820952;28;20137;-63
2022/12/12 02:48:29;;;;;;;4.95;2.28;;;;;;;22.00;36.60;101741.03;20822738;28;20395;-64
2022/12/12 02:58:33;;;;;;;4.50;2.50;;;;;;;21.99;36.54;101756.06;20760827;28;20046;-62
2022/12/12 03:08:54;;;;;;;5.38;2.30;;;;;;;21.98;36.45;101757.19;20774614;28;20045;-62
2022/12/12 03:19:24;;;;;;;4.38;2.28;;;;;;;21.91;36.68;101759.38;20831552;28;20046;-63
2022/12/12 03:29:35;;;;;;;3.35;1.90;;;;;;;21.92;36.52;101747.13;20829845;28;20546;-62
2022/12/12 03:40:02;;;;;;;3.58;2.25;;;;;;;21.88;36.61;101759.91;20827120;28;20041;-63
2022/12/12 03:50:33;;;;;;;6.13;1.73;;;;;;;21.79;36.36;101765.97;20825361;28;20050;-62
2022/12/12 04:00:39;;;;;;;2.35;1.60;;;;;;;21.80;36.20;101761.22;20822586;28;20084;-62
2022/12/12 04:32:03;;;;;;;1.92;1.58;;;;;;;21.71;36.39;101766.44;20826799;28;20038;-62
2022/12/12 04:42:08;;;;;;;2.42;1.50;;;;;;;21.67;36.23;101762.53;20832024;28;20041;-62
2022/12/12 04:52:12;;;;;;;3.53;1.52;;;;;;;21.65;35.84;101753.59;20836863;28;20045;-62
2022/12/12 05:02:16;;;;;;;1.67;1.58;;;;;;;21.63;35.99;101733.53;20837469;28;20042;-62
2022/12/12 05:12:20;;;;;;;1.30;1.20;;;;;;;21.59;36.14;101721.25;20835964;28;20457;-62
2022/12/12 05:22:22;;;;;;;2.38;1.27;;;;;;;21.62;35.95;101720.69;20836336;28;20026;-61
2022/12/12 05:32:23;;;;;;;1.35;1.23;;;;;;;21.57;36.00;101726.22;20834718;28;20034;-62
2022/12/12 05:42:24;;;;;;;2.50;1.70;;;;;;;21.53;36.10;101722.28;20833272;28;20056;-63
2022/12/12 05:52:26;;;;;;;2.15;1.42;;;;;;;21.53;36.08;101725.94;20831934;28;20042;-62
2022/12/12 06:02:30;;;;;;;1.23;1.13;;;;;;;21.51;35.73;101710.59;20833589;28;20400;-62
2022/12/12 06:12:33;;;;;;;1.63;1.52;;;;;;;21.39;35.92;101694.06;20832734;28;20033;-63
2022/12/12 06:22:35;;;;;;;1.60;1.50;;;;;;;21.45;35.81;101703.31;20831842;28;20040;-62
2022/12/12 06:32:40;;;;;;;1.80;1.50;;;;;;;21.55;35.84;101739.59;20831051;28;20434;-62
2022/12/12 06:42:41;;;;;;;1.40;1.30;;;;;;;21.56;36.17;101741.28;20828307;28;20489;-63
2022/12/12 06:52:42;;;;;;;1.73;1.63;;;;;;;21.56;35.95;101744.88;20813204;28;20483;-62
2022/12/12 07:02:44;;;;;;;1.80;1.65;;;;;;;21.53;35.93;101758.50;20812506;28;20119;-62
2022/12/12 07:12:46;;;;;;;1.40;1.30;;;;;;;21.56;35.77;101780.25;20792965;28;20374;-62
2022/12/12 07:22:47;;;;;;;2.17;1.90;;;;;;;21.43;35.93;101755.63;20777622;28;20030;-63
2022/12/12 07:32:51;;;;;;;1.85;1.70;;;;;;;21.50;35.76;101770.19;20824739;28;20041;-63
2022/12/12 07:42:55;;;;;;;1.95;1.75;;;;;;;21.53;35.74;101775.22;20824770;28;20084;-62
2022/12/12 07:52:56;;;;;;;2.00;1.80;;;;;;;21.52;36.06;101781.88;20834022;28;20041;-62
2022/12/12 08:02:57;;;;;;;2.17;1.98;;;;;;;21.43;35.70;101755.63;20839338;28;20053;-63
2022/12/12 08:12:59;;;;;;;2.58;2.20;;;;;;;21.51;35.87;101769.06;20839708;28;20181;-62
2022/12/12 08:23:03;;;;;;;2.20;2.00;;;;;;;21.49;35.82;101776.88;20838787;28;20057;-63
2022/12/12 08:33:04;;;;;;;2.28;2.08;;;;;;;21.47;35.89;101787.41;20838964;28;20025;-62
2022/12/12 08:43:09;;;;;;;2.80;2.10;;;;;;;21.36;35.69;101768.94;20820646;28;20049;-62
2022/12/12 08:53:13;;;;;;;2.30;2.10;;;;;;;21.44;35.36;101780.44;20837517;28;20041;-62
2022/12/12 09:03:16;;;;;;;2.10;1.90;;;;;;;21.39;35.73;101777.59;20836457;28;20033;-62
2022/12/12 09:13:19;;;;;;;2.42;1.85;;;;;;;21.40;35.54;101784.03;20818536;28;20076;-62
2022/12/12 09:23:24;;;;;;;2.65;2.20;;;;;;;21.38;35.68;101802.91;20834463;28;20068;-62
2022/12/12 09:33:26;;;;;;;2.47;2.28;;;;;;;21.37;35.51;101806.81;20834403;28;20388;-62
2022/12/12 09:43:36;;;;;;;3.30;2.40;;;;;;;21.33;35.51;101800.09;20831378;28;20116;-62
2022/12/12 09:53:42;;;;;;;2.38;2.17;;;;;;;21.31;35.33;101823.47;20830620;28;20041;-61
2022/12/12 10:04:04;;;;;;;2.67;2.47;;;;;;;21.26;35.73;101833.69;20829276;28;20473;-61
2022/12/12 10:14:09;;;;;;;2.83;2.53;;;;;;;21.27;35.71;101836.19;20831027;28;20042;-61
2022/12/12 10:24:38;;;;;;;2.47;2.28;;;;;;;21.21;35.57;101847.53;20830610;28;20037;-62
2022/12/12 10:35:04;;;;;;;2.20;2.00;;;;;;;21.19;35.55;101852.53;20829995;28;20041;-61
2022/12/12 10:45:33;;;;;;;2.38;2.13;;;;;;;21.18;35.70;101848.06;20829181;28;20042;-61
2022/12/12 10:55:40;;;;;;;2.10;1.90;;;;;;;21.19;35.42;101861.72;20828015;28;20092;-61
2022/12/12 11:05:41;;;;;;;2.40;2.20;;;;;;;21.17;35.66;101868.66;20828027;28;20050;-61
2022/12/12 11:15:51;;;;;;;3.42;1.90;;;;;;;21.14;35.60;101875.56;20824989;28;20037;-61
2022/12/12 11:25:58;;;;;;;2.15;1.95;;;;;;;21.13;35.31;101885.03;20788256;28;20127;-61
2022/12/12 11:36:02;;;;;;;2.42;2.00;;;;;;;21.15;35.53;101893.09;20824785;28;20099;-61
2022/12/12 11:46:09;;;;;;;2.08;1.88;;;;;;;21.12;35.20;101905.63;20825183;28;20060;-61
2022/12/12 11:56:32;;;;;;;1.80;1.65;;;;;;;21.07;35.17;101908.31;20825278;28;20038;-61
2022/12/12 12:06:58;;;;;;;2.22;2.03;;;;;;;21.03;35.62;101927.50;20828066;28;20038;-62
2022/12/12 12:17:28;;;;;;;1.77;1.67;;;;;;;21.04;35.46;101953.38;20804103;28;20048;-61
2022/12/12 12:27:44;;;;;;;4.85;1.92;;;;;;;21.08;35.71;101965.69;20782057;28;20042;-62
2022/12/12 12:38:10;;;;;;;4.20;1.60;;;;;;;21.10;36.02;101991.28;20799473;28;20042;-64
2022/12/12 12:48:29;;;;;;;1.88;1.50;;;;;;;21.15;36.13;101991.38;20837494;28;20053;-63
2022/12/12 12:58:38;;;;;;;;;;;;;;;21.18;36.18;101993.63;20838480;28;20086;-62
2022/12/12 13:08:54;;;;;;;3.60;1.40;;;;;;;21.23;36.03;102007.63;20827250;28;19924;-61
2022/12/12 13:19:20;;;;;;;2.58;1.50;;;;;;;21.13;36.59;101999.13;20827940;28;20046;-62
2022/12/12 13:30:01;;;;;;;4.97;1.70;;;;;;;21.20;36.59;102022.03;20833027;28;20408;-61
2022/12/12 13:40:06;;;;;;;7.85;1.73;;;;;;;21.30;37.38;102040.84;20830464;28;20045;-62
2022/12/12 13:50:07;;;;;;;6.38;1.50;;;;;;;21.31;37.80;102048.13;20832120;28;20042;-62
2022/12/12 14:00:19;;;;;;;5.75;1.50;;;;;;;21.30;37.52;102058.41;20795622;28;20496;-62
2022/12/12 14:10:44;;;;;;;6.40;1.77;;;;;;;21.33;37.33;102072.94;20764287;28;20417;-62
2022/12/12 14:20:56;;;;;;;9.73;1.92;;;;;;;21.34;37.41;102078.22;20764727;28;20037;-63
2022/12/12 14:31:14;;;;;;;3.35;1.42;;;;;;;21.37;37.88;102086.09;20798079;28;20042;-62
2022/12/12 14:41:19;;;;;;;5.15;1.55;;;;;;;21.34;37.47;102081.03;20781172;28;20524;-62
2022/12/12 14:51:26;;;;;;;6.60;1.77;;;;;;;21.29;37.41;102090.09;20745446;28;20092;-62
2022/12/12 15:01:41;;;;;;;4.32;1.58;;;;;;;21.43;37.36;102106.47;20745890;28;20042;-61
2022/12/12 15:11:47;;;;;;;5.75;1.33;;;;;;;21.43;37.20;102107.31;20747217;28;20061;-61
2022/12/12 15:21:50;;;;;;;4.75;1.40;;;;;;;21.44;37.39;102108.16;20746425;28;20054;-62
2022/12/12 15:32:17;;;;;;;9.25;2.10;;;;;;;21.37;37.17;102116.72;20744888;28;20042;-62
2022/12/12 15:42:19;;;;;;;5.75;1.58;;;;;;;21.43;37.01;102098.13;20739520;28;20045;-61
2022/12/12 15:52:29;;;;;;;2.83;0.93;;;;;;;21.42;36.93;102093.66;20743873;28;20034;-61
2022/12/12 16:02:34;;;;;;;4.13;1.50;;;;;;;21.28;36.93;102057.81;20743536;28;20452;-62
2022/12/12 16:13:02;;;;;;;2.85;1.25;;;;;;;21.19;37.04;102056.56;20752358;28;20034;-63
2022/12/12 16:23:19;;;;;;;2.20;1.02;;;;;;;21.23;36.88;102054.94;20752830;28;20096;-63
2022/12/12 16:33:39;;;;;;;2.60;1.20;;;;;;;21.39;36.99;102074.69;20758911;28;20034;-63
2022/12/12 16:43:41;;;;;;;1.35;1.05;;;;;;;21.40;36.76;102074.44;20756639;28;20104;-62
2022/12/12 16:53:48;;;;;;;1.13;0.82;;;;;;;21.38;36.70;102064.66;20755690;28;20111;-62
2022/12/12 17:03:49;;;;;;;2.45;1.10;;;;;;;21.39;36.85;102071.91;20755862;28;20128;-62
2022/12/12 17:13:51;;;;;;;1.35;0.98;;;;;;;21.37;37.02;102068.53;20755479;28;20108;-62
2022/12/12 17:23:52;;;;;;;2.10;0.98;;;;;;;21.25;36.70;102049.94;20753724;28;20045;-62
2022/12/12 17:33:56;;;;;;;2.42;1.17;;;;;;;21.31;36.72;102048.97;20754457;28;20034;-62
2022/12/12 17:43:58;;;;;;;1.25;0.80;;;;;;;21.33;36.50;102047.88;20753214;28;20084;-62
2022/12/12 17:53:59;;;;;;;1.42;0.90;;;;;;;21.29;36.59;102056.69;20752042;28;20096;-62
2022/12/12 18:04:02;;;;;;;0.82;0.63;;;;;;;21.28;36.46;102054.19;20750875;28;20426;-62
2022/12/12 18:14:06;;;;;;;0.88;0.77;;;;;;;21.26;36.29;102046.09;20749644;28;20354;-61
2022/12/12 18:24:08;;;;;;;1.88;0.60;;;;;;;21.23;36.40;102041.03;20749229;28;20073;-62
2022/12/12 18:34:13;;;;;;;1.20;0.90;;;;;;;21.19;36.56;102039.84;20748247;28;20034;-63
2022/12/12 18:44:14;;;;;;;0.65;0.65;;;;;;;21.18;36.54;102042.91;20748520;28;20050;-62
2022/12/12 18:54:16;;;;;;;2.17;0.70;;;;;;;21.12;36.48;102036.44;20748222;28;20042;-62
2022/12/12 19:04:18;;;;;;;0.85;0.70;;;;;;;21.13;36.29;102052.03;20747395;28;20168;-62
2022/12/12 19:14:20;;;;;;;1.00;0.90;;;;;;;21.14;36.06;102052.88;20747085;28;20050;-63
2022/12/12 19:24:21;;;;;;;0.57;0.50;;;;;;;21.13;36.04;102052.03;20746043;28;20045;-61
2022/12/12 19:34:23;;;;;;;0.73;0.55;;;;;;;21.13;36.09;102053.97;20745269;28;20038;-61
2022/12/12 19:44:24;;;;;;;0.82;0.63;;;;;;;21.16;35.92;102059.00;20748170;28;20046;-61
2022/12/12 19:54:25;;;;;;;1.08;0.70;;;;;;;21.15;36.26;102055.38;20761112;28;20042;-61
2022/12/12 20:04:30;;;;;;;0.60;0.60;;;;;;;21.16;35.97;102054.28;20760888;28;20050;-61
2022/12/12 20:14:33;;;;;;;0.88;0.60;;;;;;;21.19;36.26;102067.69;20761045;28;20045;-61
2022/12/12 20:24:38;;;;;;;1.00;0.70;;;;;;;21.13;36.32;102073.44;20758822;28;20095;-61
2022/12/12 20:34:40;;;;;;;0.93;0.50;;;;;;;21.21;36.30;102095.25;20758848;28;20547;-61
2022/12/12 20:44:41;;;;;;;0.75;0.70;;;;;;;21.20;36.14;102107.50;20758376;28;20034;-61
2022/12/12 20:54:42;;;;;;;0.70;0.52;;;;;;;21.22;36.12;102119.25;20756263;28;20060;-61
2022/12/12 21:04:44;;;;;;;0.50;0.50;;;;;;;21.14;36.01;102114.94;20756064;28;20038;-61
2022/12/12 21:14:45;;;;;;;0.60;0.60;;;;;;;21.22;36.08;102139.56;20755967;28;20041;-61
2022/12/12 21:24:49;;;;;;;0.63;0.60;;;;;;;21.21;36.03;102160.16;20754969;28;20445;-61
2022/12/12 21:34:50;;;;;;;0.85;0.70;;;;;;;21.21;36.24;102182.44;20754655;28;20075;-62
2022/12/12 21:44:51;;;;;;;0.60;0.60;;;;;;;21.20;36.28;102185.44;20753443;28;20041;-62
2022/12/12 21:54:56;;;;;;;0.98;0.60;;;;;;;21.19;36.11;102195.75;20750792;28;20046;-62
2022/12/12 22:04:57;;;;;;;1.15;0.80;;;;;;;21.00;35.73;102180.38;20751775;28;20049;-62
2022/12/12 22:14:58;;;;;;;0.75;0.57;;;;;;;21.17;35.91;102214.66;20750697;28;20091;-62
2022/12/12 22:25:00;;;;;;;0.70;0.65;;;;;;;21.18;36.09;102237.75;20749299;28;20042;-62
2022/12/12 22:35:01;;;;;;;0.70;0.70;;;;;;;21.11;35.96;102254.59;20748288;28;20030;-61
2022/12/12 22:45:08;;;;;;;0.73;0.60;;;;;;;21.17;35.98;102272.25;20748608;28;20478;-61
2022/12/12 22:55:09;;;;;;;0.90;0.60;;;;;;;21.15;35.72;102278.06;20747775;28;20038;-61
2022/12/12 23:05:14;;;;;;;0.70;0.70;;;;;;;21.14;35.87;102293.06;20746800;28;20493;-61
2022/12/12 23:15:15;;;;;;;0.70;0.70;;;;;;;21.10;35.98;102302.19;20746028;28;20034;-61
2022/12/12 23:25:19;;;;;;;0.60;0.57;;;;;;;21.10;35.60;102304.97;20744232;28;20481;-62
2022/12/12 23:35:23;;;;;;;0.85;0.70;;;;;;;21.10;35.64;102327.22;20745693;28;20033;-62
2022/12/12 23:45:24;;;;;;;0.80;0.80;;;;;;;21.07;35.71;102336.91;20745354;28;20041;-61
2022/12/12 23:55:26;;;;;;;0.55;0.55;;;;;;;21.05;35.92;102364.16;20744421;28;20081;-62
